Ashurst, United Kingdom
Current Conditions -  °F | °C
As of 3:20 PM on Sunday 21 Dec 2014 (Local Time) from EGKA Reporting Station
Drizzle Drizzle  
Wind Chill: 50°   Ceiling: 1500
Heat Index: 50°   Visibility: 2.5mi
Dew Point: 46°   Wind: 20mph
Humidity: 87%   Direction: 250°WSW
Pressure: 30.3"   Gusts: NA
Location:  50.93°N, 0.32°W
Report Text: EGKA 211520Z 25017KT 4000 -DZ FEW005 SCT007 BKN015 10/08 Q1026
Loading
Personal Weather Stations






























Interactive Weather Map New forecast layout! Learn more

10-Day Weather Forecast

Advertisements
Track Severe Weather on mobile